createdAt,value
2022-10-04T00:01:44.132Z,14.60
2022-10-04T00:04:18.316Z,9.90
2022-10-04T00:07:01.598Z,9.20
2022-10-04T00:09:43.289Z,11.13
2022-10-04T00:12:23.855Z,9.45
2022-10-04T00:14:55.259Z,10.50
2022-10-04T00:17:28.175Z,10.55
2022-10-04T00:19:56.407Z,12.07
2022-10-04T00:22:26.233Z,10.23
2022-10-04T00:25:10.045Z,11.57
2022-10-04T00:27:38.970Z,9.65
2022-10-04T00:30:22.127Z,13.20
2022-10-04T00:33:03.588Z,8.45
2022-10-04T00:35:30.970Z,11.75
2022-10-04T00:38:00.911Z,10.32
2022-10-04T00:40:33.797Z,11.50
2022-10-04T00:43:15.950Z,12.02
2022-10-04T00:45:52.407Z,9.10
2022-10-04T00:48:44.004Z,11.15
2022-10-04T00:51:25.322Z,11.27
2022-10-04T00:53:57.353Z,11.07
2022-10-04T00:59:21.188Z,10.93
2022-10-04T01:01:58.415Z,12.90
2022-10-04T01:04:28.886Z,9.82
2022-10-04T01:07:01.381Z,10.13
2022-10-04T01:09:32.838Z,11.85
2022-10-04T01:12:05.820Z,11.38
2022-10-04T01:14:48.858Z,10.75
2022-10-04T01:17:16.107Z,10.50
2022-10-04T01:19:53.575Z,11.25
2022-10-04T01:22:29.802Z,11.90
2022-10-04T01:24:57.453Z,12.52
2022-10-04T01:27:32.185Z,10.50
2022-10-04T01:30:00.546Z,11.43
2022-10-04T01:32:28.160Z,12.95
2022-10-04T01:34:56.326Z,11.13
2022-10-04T01:37:23.868Z,14.82
2022-10-04T01:39:51.318Z,13.70
2022-10-04T01:42:23.729Z,12.32
2022-10-04T01:44:57.253Z,14.63
2022-10-04T01:47:31.262Z,13.15
2022-10-04T01:50:03.619Z,11.20
2022-10-04T01:52:41.848Z,12.13
2022-10-04T01:55:15.721Z,10.35
2022-10-04T01:57:50.492Z,13.63
2022-10-04T02:00:21.568Z,12.07
2022-10-04T02:02:58.433Z,18.33
2022-10-04T02:05:35.119Z,11.48
2022-10-04T02:08:10.414Z,12.40
2022-10-04T02:10:43.583Z,12.38
2022-10-04T02:13:18.118Z,11.52
2022-10-04T02:15:47.607Z,12.30
2022-10-04T02:18:18.670Z,14.82
2022-10-04T02:20:49.619Z,13.35
2022-10-04T02:23:19.994Z,20.83
2022-10-04T02:25:47.638Z,14.00
2022-10-04T02:28:16.541Z,14.85
2022-10-04T02:31:08.212Z,16.42
2022-10-04T02:33:44.887Z,20.25
2022-10-04T02:36:13.876Z,17.02
2022-10-04T02:38:55.274Z,15.80
2022-10-04T02:41:41.479Z,14.43
2022-10-04T02:44:20.517Z,17.65
2022-10-04T02:46:57.261Z,15.85
2022-10-04T02:49:38.573Z,15.18
2022-10-04T02:52:10.253Z,16.17
2022-10-04T02:54:49.614Z,16.63
2022-10-04T02:57:19.899Z,14.57
2022-10-04T02:59:48.636Z,15.90
2022-10-04T03:02:31.102Z,16.40
2022-10-04T03:05:05.975Z,13.02
2022-10-04T03:07:35.886Z,15.68
2022-10-04T03:10:08.481Z,16.42
2022-10-04T03:12:37.518Z,15.32
2022-10-04T03:15:09.511Z,15.73
2022-10-04T03:20:06.091Z,14.05
2022-10-04T03:22:33.466Z,13.85
2022-10-04T03:25:01.619Z,15.23
2022-10-04T03:27:33.983Z,14.25
2022-10-04T03:30:02.062Z,17.17
2022-10-04T03:32:31.195Z,16.27
2022-10-04T03:35:05.991Z,14.07
2022-10-04T03:37:37.679Z,17.35
2022-10-04T03:40:09.783Z,14.88
2022-10-04T03:42:39.317Z,17.42
2022-10-04T03:45:11.743Z,15.48
2022-10-04T03:47:43.355Z,16.88
2022-10-04T03:50:13.685Z,17.63
2022-10-04T03:52:50.850Z,15.57
2022-10-04T03:55:19.692Z,12.77
2022-10-04T03:57:47.291Z,15.73
2022-10-04T04:00:17.418Z,15.77
2022-10-04T04:02:49.083Z,20.08
2022-10-04T04:08:14.625Z,15.70
2022-10-04T04:10:55.178Z,17.13
2022-10-04T04:13:27.615Z,18.23
2022-10-04T04:15:57.027Z,15.73
2022-10-04T04:18:28.033Z,15.48
2022-10-04T04:20:59.118Z,13.52
2022-10-04T04:23:32.965Z,15.97
2022-10-04T04:26:12.042Z,14.60
2022-10-04T04:28:44.910Z,15.38
2022-10-04T04:31:24.235Z,15.32
2022-10-04T04:34:00.677Z,17.00
2022-10-04T04:36:40.062Z,14.88
2022-10-04T04:39:34.684Z,14.70
2022-10-04T04:42:06.839Z,14.60
2022-10-04T04:44:36.394Z,16.67
2022-10-04T04:47:09.559Z,15.40
2022-10-04T04:49:40.198Z,13.18
2022-10-04T04:52:16.872Z,13.48
2022-10-04T04:54:47.426Z,15.13
2022-10-04T04:57:17.960Z,16.83
2022-10-04T04:59:49.446Z,16.98
2022-10-04T05:02:37.809Z,18.17
2022-10-04T05:05:16.502Z,15.65
2022-10-04T05:07:43.879Z,16.15
2022-10-04T05:10:33.803Z,19.40
2022-10-04T05:13:04.319Z,17.77
2022-10-04T05:15:35.290Z,19.90
2022-10-04T05:18:15.395Z,16.75
2022-10-04T05:20:50.355Z,15.30
2022-10-04T05:23:17.780Z,21.17
2022-10-04T05:25:48.032Z,15.77
2022-10-04T05:28:17.676Z,19.40
2022-10-04T05:31:10.844Z,17.65
2022-10-04T05:33:54.061Z,16.60
2022-10-04T05:36:30.312Z,17.98
2022-10-04T05:39:06.754Z,17.23
2022-10-04T05:41:47.125Z,14.50
2022-10-04T05:44:28.966Z,16.92
2022-10-04T05:46:59.546Z,19.52
2022-10-04T05:49:33.645Z,17.35
2022-10-04T05:52:13.914Z,19.08
2022-10-04T05:54:41.564Z,16.58
2022-10-04T05:57:50.862Z,16.73
2022-10-04T06:00:21.086Z,15.90
2022-10-04T06:03:13.824Z,19.08
2022-10-04T06:05:49.848Z,17.95
2022-10-04T06:08:26.113Z,16.50
2022-10-04T06:11:05.528Z,16.40
2022-10-04T06:13:59.458Z,16.73
2022-10-04T06:16:45.158Z,17.25
2022-10-04T06:19:43.375Z,19.48
2022-10-04T06:22:22.745Z,16.20
2022-10-04T06:25:13.990Z,18.00
2022-10-04T06:27:44.879Z,16.92
2022-10-04T06:30:16.586Z,16.80
2022-10-04T06:33:11.716Z,16.05
2022-10-04T06:36:18.783Z,13.75
2022-10-04T06:39:04.416Z,13.52
2022-10-04T06:41:39.392Z,14.75
2022-10-04T06:44:14.667Z,16.10
2022-10-04T06:47:08.921Z,15.85
2022-10-04T06:49:48.814Z,14.60
2022-10-04T06:52:31.139Z,14.70
2022-10-04T06:55:16.867Z,16.35
2022-10-04T06:58:17.438Z,15.18
2022-10-04T07:00:55.435Z,18.20
2022-10-04T07:03:49.243Z,16.88
2022-10-04T07:06:30.995Z,17.73
2022-10-04T07:09:03.423Z,15.07
2022-10-04T07:11:45.861Z,16.77
2022-10-04T07:14:18.719Z,16.65
2022-10-04T07:16:54.716Z,18.27
2022-10-04T07:19:32.565Z,19.67
2022-10-04T07:22:10.191Z,15.50
2022-10-04T07:25:02.354Z,20.02
2022-10-04T07:27:34.542Z,20.02
2022-10-04T07:30:06.922Z,19.85
2022-10-04T07:32:44.054Z,19.00
2022-10-04T07:35:15.012Z,17.00
2022-10-04T07:38:15.812Z,20.25
2022-10-04T07:41:08.444Z,18.48
2022-10-04T07:43:49.736Z,20.00
2022-10-04T07:46:17.023Z,19.70
2022-10-04T07:48:44.619Z,17.92
2022-10-04T07:51:44.815Z,16.52
2022-10-04T07:54:22.407Z,15.63
2022-10-04T07:57:01.303Z,21.45
2022-10-04T07:59:37.526Z,17.23
2022-10-04T08:02:41.372Z,14.63
2022-10-04T08:05:21.883Z,14.25
2022-10-04T08:08:17.205Z,14.90
2022-10-04T08:11:06.443Z,15.35
2022-10-04T08:13:52.585Z,15.82
2022-10-04T08:16:34.449Z,18.20
2022-10-04T08:19:19.834Z,20.08
2022-10-04T08:22:05.592Z,18.80
2022-10-04T08:24:53.884Z,20.77
2022-10-04T08:28:08.464Z,16.48
2022-10-04T08:31:27.852Z,14.73
2022-10-04T08:34:17.890Z,14.57
2022-10-04T08:40:19.119Z,13.95
2022-10-04T08:43:04.435Z,13.52
2022-10-04T08:45:52.840Z,12.02
2022-10-04T08:48:32.963Z,9.85
2022-10-04T08:51:24.952Z,10.35
2022-10-04T08:54:25.090Z,11.48
2022-10-04T08:57:20.104Z,9.80
2022-10-04T09:00:15.221Z,9.27
2022-10-04T09:03:01.568Z,8.80
2022-10-04T09:05:47.592Z,8.27
2022-10-04T09:08:26.650Z,7.65
2022-10-04T09:11:25.679Z,7.55
2022-10-04T09:14:08.048Z,7.53
2022-10-04T09:17:22.338Z,8.20
2022-10-04T09:20:37.764Z,6.22
2022-10-04T09:23:14.886Z,9.65
2022-10-04T09:26:06.545Z,6.47
2022-10-04T09:28:45.929Z,8.80
2022-10-04T09:31:39.862Z,8.80
2022-10-04T09:34:38.697Z,10.35
2022-10-04T09:37:32.654Z,8.93
2022-10-04T09:40:37.335Z,8.77
2022-10-04T09:43:48.455Z,8.27
2022-10-04T09:47:10.519Z,11.90
2022-10-04T09:50:03.637Z,9.38
2022-10-04T09:52:40.066Z,8.95
2022-10-04T09:55:37.320Z,8.15
2022-10-04T09:58:43.438Z,8.63
2022-10-04T10:01:23.203Z,9.77
2022-10-04T10:04:04.583Z,12.85
2022-10-04T10:06:59.517Z,10.23
2022-10-04T10:09:56.113Z,9.85
2022-10-04T10:12:50.553Z,10.88
2022-10-04T10:15:22.686Z,9.73
2022-10-04T10:18:01.656Z,10.25
2022-10-04T10:20:46.895Z,10.50
2022-10-04T10:23:32.297Z,9.57
2022-10-04T10:26:18.995Z,8.85
2022-10-04T10:29:25.301Z,6.78
2022-10-04T10:32:29.645Z,6.57
2022-10-04T10:35:15.571Z,9.07
2022-10-04T10:38:04.913Z,8.20
2022-10-04T10:40:59.904Z,7.97
2022-10-04T10:43:55.515Z,7.47
2022-10-04T10:46:48.358Z,8.50
2022-10-04T10:49:38.120Z,8.15
2022-10-04T10:52:46.770Z,7.05
2022-10-04T10:55:48.252Z,6.30
2022-10-04T10:58:27.836Z,5.53
2022-10-04T11:01:36.294Z,7.82
2022-10-04T11:04:09.768Z,4.53
2022-10-04T11:07:04.190Z,6.20
2022-10-04T11:10:07.088Z,6.32
2022-10-04T11:13:09.655Z,6.85
2022-10-04T11:15:52.421Z,7.75
2022-10-04T11:18:28.726Z,6.45
2022-10-04T11:21:34.917Z,8.18
2022-10-04T11:24:30.042Z,5.57
2022-10-04T11:27:18.810Z,4.82
2022-10-04T11:30:15.239Z,4.50
2022-10-04T11:33:20.883Z,7.32
2022-10-04T11:36:08.191Z,5.68
2022-10-04T11:38:56.672Z,6.20
2022-10-04T11:41:39.348Z,6.43
2022-10-04T11:44:18.590Z,7.90
2022-10-04T11:46:52.096Z,4.63
2022-10-04T11:49:56.571Z,5.65
2022-10-04T11:53:03.194Z,6.05
2022-10-04T11:55:46.156Z,7.25
2022-10-04T11:58:35.085Z,9.15
2022-10-04T12:01:21.922Z,6.13
2022-10-04T12:04:06.006Z,6.32
2022-10-04T12:06:45.754Z,4.82
2022-10-04T12:09:49.826Z,6.82
2022-10-04T12:12:38.243Z,6.70
2022-10-04T12:15:28.116Z,5.85
2022-10-04T12:18:20.176Z,7.10
2022-10-04T12:21:24.291Z,8.73
2022-10-04T12:24:09.112Z,6.13
2022-10-04T12:27:04.582Z,6.57
2022-10-04T12:29:50.288Z,8.43
2022-10-04T12:32:30.330Z,6.70
2022-10-04T12:35:30.018Z,5.55
2022-10-04T12:38:12.423Z,7.38
2022-10-04T12:41:03.814Z,8.15
2022-10-04T12:43:56.745Z,6.50
2022-10-04T12:46:33.390Z,4.93
2022-10-04T12:49:01.134Z,6.97
2022-10-04T12:51:45.393Z,6.15
2022-10-04T12:54:32.030Z,8.32
2022-10-04T12:57:31.503Z,6.80
2022-10-04T13:00:06.222Z,6.47
2022-10-04T13:02:42.841Z,7.38
2022-10-04T13:05:22.275Z,12.43
2022-10-04T13:08:05.756Z,7.80
2022-10-04T13:10:51.244Z,7.75
2022-10-04T13:13:41.125Z,7.18
2022-10-04T13:19:21.336Z,9.70
2022-10-04T13:22:07.329Z,9.27
2022-10-04T13:25:02.415Z,9.48
2022-10-04T13:27:51.386Z,6.40
2022-10-04T13:30:27.746Z,7.60
2022-10-04T13:33:10.279Z,6.57
2022-10-04T13:35:41.076Z,7.25
2022-10-04T13:38:36.391Z,8.18
2022-10-04T13:41:15.130Z,6.60
2022-10-04T13:44:02.471Z,9.52
2022-10-04T13:46:36.907Z,7.03
2022-10-04T13:49:29.545Z,7.50
2022-10-04T13:52:40.441Z,10.27
2022-10-04T13:55:53.990Z,8.68
2022-10-04T13:59:18.770Z,8.02
2022-10-04T14:02:22.635Z,7.32
2022-10-04T14:05:23.567Z,10.18
2022-10-04T14:07:51.435Z,13.48
2022-10-04T14:10:49.374Z,7.82
2022-10-04T14:14:00.306Z,8.80
2022-10-04T14:16:35.410Z,12.02
2022-10-04T14:19:14.598Z,8.50
2022-10-04T14:21:54.250Z,8.98
2022-10-04T14:24:33.339Z,7.93
2022-10-04T14:27:12.510Z,10.10
2022-10-04T14:29:54.637Z,8.65
2022-10-04T14:35:09.792Z,9.10
2022-10-04T14:38:12.332Z,8.68
2022-10-04T14:41:18.259Z,10.23
2022-10-04T14:43:58.526Z,8.73
2022-10-04T14:46:43.409Z,10.20
2022-10-04T14:49:19.691Z,9.75
2022-10-04T14:52:37.969Z,12.82
2022-10-04T14:55:27.222Z,11.43
2022-10-04T14:58:34.782Z,9.68
2022-10-04T15:01:19.878Z,11.32
2022-10-04T15:04:12.830Z,9.82
2022-10-04T15:07:01.964Z,11.10
2022-10-04T15:09:46.602Z,8.45
2022-10-04T15:13:08.849Z,11.07
2022-10-04T15:15:33.595Z,8.88
2022-10-04T15:18:10.865Z,10.07
2022-10-04T15:20:54.088Z,11.15
2022-10-04T15:23:42.342Z,12.43
2022-10-04T15:26:32.388Z,9.23
2022-10-04T15:29:23.800Z,9.88
2022-10-04T15:32:17.671Z,10.37
2022-10-04T15:35:06.066Z,10.95
2022-10-04T15:37:55.932Z,9.45
2022-10-04T15:40:35.212Z,10.55
2022-10-04T15:43:17.382Z,11.70
2022-10-04T15:46:23.905Z,10.88
2022-10-04T15:49:09.881Z,11.73
2022-10-04T15:51:41.524Z,13.68
2022-10-04T15:54:43.295Z,11.82
2022-10-04T15:57:27.028Z,11.00
2022-10-04T16:00:22.207Z,9.60
2022-10-04T16:02:55.605Z,11.23
2022-10-04T16:05:37.332Z,10.45
2022-10-04T16:08:19.962Z,12.40
2022-10-04T16:11:00.437Z,10.32
2022-10-04T16:13:44.676Z,10.93
2022-10-04T16:16:19.685Z,10.88
2022-10-04T16:19:00.834Z,11.38
2022-10-04T16:21:46.961Z,12.77
2022-10-04T16:24:42.119Z,10.65
2022-10-04T16:27:46.196Z,16.85
2022-10-04T16:30:28.092Z,13.68
2022-10-04T16:32:58.622Z,18.75
2022-10-04T16:35:39.994Z,30.35
2022-10-04T16:38:13.272Z,36.40
2022-10-04T16:40:52.543Z,34.38
2022-10-04T16:43:19.772Z,33.55
2022-10-04T16:46:09.924Z,32.40
2022-10-04T16:48:55.588Z,28.75
2022-10-04T16:51:44.364Z,26.23
2022-10-04T16:54:31.094Z,25.38
2022-10-04T16:56:59.237Z,17.83
2022-10-04T16:59:38.665Z,17.15
2022-10-04T17:02:15.158Z,17.65
2022-10-04T17:05:30.085Z,17.15
2022-10-04T17:08:15.387Z,14.15
2022-10-04T17:10:48.546Z,13.10
2022-10-04T17:13:39.087Z,14.15
2022-10-04T17:16:13.739Z,21.00
2022-10-04T17:19:12.979Z,27.45
2022-10-04T17:21:46.258Z,22.58
2022-10-04T17:24:40.794Z,21.52
2022-10-04T17:27:46.515Z,18.52
2022-10-04T17:30:24.264Z,15.90
2022-10-04T17:33:19.619Z,18.15
2022-10-04T17:36:18.467Z,17.70
2022-10-04T17:39:06.003Z,14.27
2022-10-04T17:41:36.416Z,13.05
2022-10-04T17:44:24.405Z,15.70
2022-10-04T17:47:14.129Z,19.85
2022-10-04T17:50:06.661Z,15.70
2022-10-04T17:53:02.934Z,15.82
2022-10-04T17:55:58.807Z,14.25
2022-10-04T17:58:39.703Z,15.38
2022-10-04T18:01:42.857Z,12.93
2022-10-04T18:04:26.302Z,14.98
2022-10-04T18:06:59.162Z,18.55
2022-10-04T18:09:35.816Z,14.30
2022-10-04T18:12:28.277Z,14.35
2022-10-04T18:17:49.065Z,9.18
2022-10-04T18:20:27.740Z,12.95
2022-10-04T18:22:59.234Z,12.20
2022-10-04T18:25:31.049Z,12.18
2022-10-04T18:28:07.304Z,12.82
2022-10-04T18:30:59.132Z,12.40
2022-10-04T18:33:37.276Z,15.15
2022-10-04T18:36:13.730Z,14.90
2022-10-04T18:38:43.845Z,11.85
2022-10-04T18:41:24.316Z,11.95
2022-10-04T18:44:06.112Z,14.35
2022-10-04T18:46:41.630Z,12.75
2022-10-04T18:49:27.257Z,11.70
2022-10-04T18:52:14.897Z,17.38
2022-10-04T18:55:23.341Z,17.80
2022-10-04T18:58:34.983Z,14.40
2022-10-04T19:01:58.392Z,15.93
2022-10-04T19:04:46.428Z,14.95
2022-10-04T19:07:23.098Z,14.85
2022-10-04T19:10:08.272Z,16.42
2022-10-04T19:12:57.483Z,15.52
2022-10-04T19:16:03.831Z,13.73
2022-10-04T19:18:41.533Z,14.82
2022-10-04T19:21:23.793Z,16.70
2022-10-04T19:24:15.598Z,15.90
2022-10-04T19:26:57.703Z,14.68
2022-10-04T19:30:02.557Z,15.90
2022-10-04T19:32:42.179Z,16.63
2022-10-04T19:35:37.339Z,17.00
2022-10-04T19:38:26.439Z,15.73
2022-10-04T19:40:57.631Z,15.23
2022-10-04T19:43:48.020Z,16.13
2022-10-04T19:46:43.946Z,17.05
2022-10-04T19:49:25.831Z,15.27
2022-10-04T19:52:01.012Z,19.67
2022-10-04T19:54:35.767Z,15.73
2022-10-04T19:57:09.899Z,16.52
2022-10-04T19:59:40.828Z,18.75
2022-10-04T20:02:12.056Z,19.15
2022-10-04T20:04:42.753Z,17.25
2022-10-04T20:07:26.548Z,16.45
2022-10-04T20:10:28.122Z,15.77
2022-10-04T20:13:10.754Z,14.25
2022-10-04T20:15:38.567Z,17.48
2022-10-04T20:18:31.706Z,17.25
2022-10-04T20:21:01.285Z,18.52
2022-10-04T20:23:41.121Z,19.10
2022-10-04T20:26:09.692Z,15.45
2022-10-04T20:28:42.803Z,15.75
2022-10-04T20:31:19.138Z,17.65
2022-10-04T20:33:48.924Z,21.55
2022-10-04T20:36:19.461Z,16.52
2022-10-04T20:39:04.072Z,16.55
2022-10-04T20:41:51.393Z,16.83
2022-10-04T20:44:57.622Z,17.90
2022-10-04T20:47:46.328Z,16.75
2022-10-04T20:50:14.097Z,15.38
2022-10-04T20:52:53.644Z,17.50
2022-10-04T20:55:32.819Z,18.08
2022-10-04T20:58:21.053Z,16.55
2022-10-04T21:00:59.940Z,17.35
2022-10-04T21:03:27.325Z,18.52
2022-10-04T21:06:12.037Z,16.73
2022-10-04T21:08:40.894Z,17.73
2022-10-04T21:11:20.076Z,14.75
2022-10-04T21:13:48.613Z,16.58
2022-10-04T21:16:41.115Z,14.75
2022-10-04T21:19:33.655Z,17.42
2022-10-04T21:22:04.742Z,17.73
2022-10-04T21:24:40.605Z,13.07
2022-10-04T21:27:24.655Z,16.38
2022-10-04T21:29:53.681Z,18.92
2022-10-04T21:32:25.481Z,18.10
2022-10-04T21:34:54.427Z,17.13
2022-10-04T21:37:22.132Z,16.17
2022-10-04T21:39:49.609Z,21.05
2022-10-04T21:42:17.243Z,17.10
2022-10-04T21:44:47.348Z,18.65
2022-10-04T21:47:14.995Z,15.32
2022-10-04T21:49:42.485Z,15.70
2022-10-04T21:52:09.808Z,19.02
2022-10-04T21:54:37.180Z,16.17
2022-10-04T21:57:04.565Z,16.48
2022-10-04T21:59:32.290Z,20.45
2022-10-04T22:01:59.575Z,16.65
2022-10-04T22:04:27.014Z,19.95
2022-10-04T22:06:54.334Z,18.50
2022-10-04T22:09:21.638Z,18.45
2022-10-04T22:11:48.969Z,17.25
2022-10-04T22:14:16.330Z,18.55
2022-10-04T22:16:44.182Z,17.35
2022-10-04T22:19:11.708Z,15.68
2022-10-04T22:21:39.005Z,17.38
2022-10-04T22:24:16.650Z,17.60
2022-10-04T22:26:44.526Z,16.85
2022-10-04T22:29:14.632Z,15.10
2022-10-04T22:31:47.289Z,18.38
2022-10-04T22:34:23.560Z,16.58
2022-10-04T22:36:54.342Z,13.68
2022-10-04T22:39:22.043Z,17.15
2022-10-04T22:41:58.437Z,20.20
2022-10-04T22:44:29.382Z,17.65
2022-10-04T22:46:59.779Z,17.73
2022-10-04T22:49:30.477Z,18.40
2022-10-04T22:51:59.551Z,17.98
2022-10-04T22:54:34.896Z,18.42
2022-10-04T22:57:02.279Z,17.40
2022-10-04T22:59:37.839Z,17.33
2022-10-04T23:02:26.905Z,15.90
2022-10-04T23:04:56.931Z,18.92
2022-10-04T23:07:24.463Z,16.55
2022-10-04T23:09:52.092Z,17.05
2022-10-04T23:12:19.420Z,15.45
2022-10-04T23:14:46.729Z,16.67
2022-10-04T23:17:33.409Z,17.70
2022-10-04T23:20:15.848Z,17.75
2022-10-04T23:22:45.389Z,17.40
2022-10-04T23:25:25.992Z,15.15
2022-10-04T23:27:56.718Z,15.93
2022-10-04T23:30:24.912Z,23.23
2022-10-04T23:32:57.015Z,22.48
2022-10-04T23:35:27.914Z,15.77
2022-10-04T23:37:55.223Z,20.73
2022-10-04T23:40:24.453Z,16.75
2022-10-04T23:42:56.417Z,15.55
2022-10-04T23:45:26.415Z,15.25
2022-10-04T23:47:56.148Z,16.90
2022-10-04T23:50:38.582Z,15.68
2022-10-04T23:53:12.470Z,12.55
2022-10-04T23:55:42.471Z,19.08
2022-10-04T23:58:14.629Z,19.63
